^^
Datos históricos de la estación: Murcia-Puente Tocinos
Diario Informe para Marzo 25, 2019 Unidades:  Ambas    Ingés   Métrico
Diario Semanal Mensual Anual
  Máxima: Mínima: Promedio:
Temperatura: 76.5 °F /  24.7 °C 57 °F /  13.9 °C 65.3 °F /  18.5 °C
Punto de rocio: 54.1 °F /  12.3 °C 46.6 °F /  8.1 °C 49.6 °F /  9.8 °C
Humedad: 72.2% 39.9% 58%
Velocidad viento: 8.1mph /  13km/h - 4mph /  6.4km/h
Racha viento: 14mph /  22.5km/h - -
Viento- - SSO
Presión: 30.2 in /  1022.4 hPa 30.1 in /  1018.8 hPa -
Precipitación: 0 in /  0.0 mm    
 
 
Tabla de datos para Marzo 25, 2019
Hora Temperatura Punto de rocio Presión Viento Velocidad viento Racha viento Humedad Intensidad lluvia(por hora) Nubes
00:04 64.2 °F /  17.9 °C 46.8 °F /  8.2 °C 30.2in /  1021.3hPa OSO 5.2mph /  8.4km/h 9.2mph /  14.8km/h 53% 0in /  0.0mm
00:09 64.2 °F /  17.9 °C 46.8 °F /  8.2 °C 30.2in /  1021.3hPa Oeste 5.4mph /  8.7km/h 9.2mph /  14.8km/h 53% 0in /  0.0mm
00:14 64 °F /  17.8 °C 46.6 °F /  8.1 °C 30.2in /  1021.1hPa Oeste 5.3mph /  8.5km/h 9mph /  14.5km/h 53.1% 0in /  0.0mm
00:19 63.9 °F /  17.7 °C 46.9 °F /  8.3 °C 30.2in /  1021.1hPa OSO 5.2mph /  8.4km/h 9.2mph /  14.8km/h 54% 0in /  0.0mm
00:24 63.7 °F /  17.6 °C 46.9 °F /  8.3 °C 30.2in /  1021.1hPa OSO 4.3mph /  6.9km/h 7mph /  11.3km/h 54.5% 0in /  0.0mm
00:29 63.1 °F /  17.3 °C 47.1 °F /  8.4 °C 30.2in /  1021.1hPa OSO 4mph /  6.5km/h 9.2mph /  14.8km/h 55.6% 0in /  0.0mm
00:34 63 °F /  17.2 °C 47.1 °F /  8.4 °C 30.2in /  1021.1hPa Sur 4.5mph /  7.3km/h 9mph /  14.5km/h 56.5% 0in /  0.0mm
00:39 62.4 °F /  16.9 °C 47.5 °F /  8.6 °C 30.2in /  1021.4hPa SE 4.7mph /  7.6km/h 9.7mph /  15.6km/h 58% 0in /  0.0mm
00:44 61.7 °F /  16.5 °C 47.5 °F /  8.6 °C 30.2in /  1021.4hPa SE 4.7mph /  7.6km/h 10mph /  16.1km/h 59.7% 0in /  0.0mm
00:49 61.2 °F /  16.2 °C 47.5 °F /  8.6 °C 30.2in /  1021.4hPa Sur 4.7mph /  7.6km/h 10.4mph /  16.7km/h 60.5% 0in /  0.0mm
00:54 61.2 °F /  16.2 °C 47.1 °F /  8.4 °C 30.2in /  1021.5hPa SSE 5.8mph /  9.3km/h 14mph /  22.5km/h 59.7% 0in /  0.0mm
00:59 61.5 °F /  16.4 °C 47.1 °F /  8.4 °C 30.2in /  1021.5hPa Sur 6.2mph /  10km/h 14mph /  22.5km/h 59% 0in /  0.0mm
01:04 61.5 °F /  16.4 °C 47.1 °F /  8.4 °C 30.2in /  1021.5hPa SSO 7.6mph /  12.3km/h 12mph /  19.3km/h 59% 0in /  0.0mm
01:09 61.9 °F /  16.6 °C 46.9 °F /  8.3 °C 30.2in /  1021.5hPa SSO 8.1mph /  13km/h 12mph /  19.3km/h 58.1% 0in /  0.0mm
01:14 61.9 °F /  16.6 °C 47.3 °F /  8.5 °C 30.2in /  1021.5hPa SO 7.2mph /  11.6km/h 12mph /  19.3km/h 58.8% 0in /  0.0mm
01:19 61.7 °F /  16.5 °C 47.3 °F /  8.5 °C 30.2in /  1021.5hPa SO 6.9mph /  11.1km/h 12mph /  19.3km/h 58.9% 0in /  0.0mm
01:24 62.1 °F /  16.7 °C 46.9 °F /  8.3 °C 30.2in /  1021.5hPa SO 6.2mph /  9.9km/h 11.5mph /  18.5km/h 58% 0in /  0.0mm
01:29 62.1 °F /  16.7 °C 47.1 °F /  8.4 °C 30.2in /  1021.4hPa SSO 5.9mph /  9.5km/h 12mph /  19.3km/h 58% 0in /  0.0mm
01:34 62.2 °F /  16.8 °C 47.3 °F /  8.5 °C 30.2in /  1021.4hPa SSE 5.4mph /  8.7km/h 9mph /  14.5km/h 58% 0in /  0.0mm
01:39 61.7 °F /  16.5 °C 47.1 °F /  8.4 °C 30.2in /  1021.6hPa Sur 5.2mph /  8.4km/h 9mph /  14.5km/h 58.8% 0in /  0.0mm
01:44 61.3 °F /  16.3 °C 47.1 °F /  8.4 °C 30.2in /  1021.6hPa SSO 5.3mph /  8.6km/h 8.5mph /  13.7km/h 59.6% 0in /  0.0mm
01:49 61.2 °F /  16.2 °C 47.3 °F /  8.5 °C 30.2in /  1021.6hPa SO 5.4mph /  8.7km/h 9mph /  14.5km/h 60% 0in /  0.0mm
01:54 61.3 °F /  16.3 °C 47.1 °F /  8.4 °C 30.2in /  1021.6hPa SO 5.3mph /  8.5km/h 8mph /  12.9km/h 59.5% 0in /  0.0mm
01:59 61.3 °F /  16.3 °C 46.9 °F /  8.3 °C 30.2in /  1021.3hPa SSO 5.2mph /  8.4km/h 9.2mph /  14.8km/h 59% 0in /  0.0mm
02:04 61.5 °F /  16.4 °C 47.1 °F /  8.4 °C 30.2in /  1021.3hPa SO 5.2mph /  8.4km/h 9.2mph /  14.8km/h 59% 0in /  0.0mm
02:09 61.5 °F /  16.4 °C 47.1 °F /  8.4 °C 30.2in /  1021.3hPa SSO 5.2mph /  8.4km/h 9.2mph /  14.8km/h 59% 0in /  0.0mm
02:14 61.7 °F /  16.5 °C 46.9 °F /  8.3 °C 30.2in /  1021.3hPa SSO 5.3mph /  8.6km/h 9mph /  14.5km/h 58.3% 0in /  0.0mm
02:19 61.9 °F /  16.6 °C 46.9 °F /  8.3 °C 30.2in /  1021.3hPa SO 5.4mph /  8.7km/h 8.1mph /  13km/h 58% 0in /  0.0mm
02:24 61.7 °F /  16.5 °C 46.8 °F /  8.2 °C 30.2in /  1021.4hPa SO 5.3mph /  8.5km/h 8.1mph /  13km/h 58% 0in /  0.0mm
02:29 61.7 °F /  16.5 °C 46.8 °F /  8.2 °C 30.2in /  1021.4hPa SSO 5.2mph /  8.4km/h 9.7mph /  15.6km/h 58% 0in /  0.0mm
02:34 61.5 °F /  16.4 °C 46.9 °F /  8.3 °C 30.2in /  1021.4hPa SSO 5.9mph /  9.5km/h 10mph /  16.1km/h 58.8% 0in /  0.0mm
02:39 61.2 °F /  16.2 °C 47.1 °F /  8.4 °C 30.2in /  1021.4hPa SSO 6.2mph /  10km/h 9.2mph /  14.8km/h 59.7% 0in /  0.0mm
02:44 60.8 °F /  16 °C 46.9 °F /  8.3 °C 30.2in /  1021.3hPa SO 5.6mph /  9km/h 9mph /  14.5km/h 60.1% 0in /  0.0mm
02:49 60.6 °F /  15.9 °C 47.1 °F /  8.4 °C 30.2in /  1021.3hPa SSO 5.4mph /  8.7km/h 8mph /  12.9km/h 61% 0in /  0.0mm
02:54 60.4 °F /  15.8 °C 46.9 °F /  8.3 °C 30.2in /  1021.4hPa Sur 3.7mph /  6km/h 5.2mph /  8.4km/h 61% 0in /  0.0mm
02:59 60.4 °F /  15.8 °C 47.1 °F /  8.4 °C 30.2in /  1021.4hPa SSE 3.1mph /  5km/h 6.9mph /  11.1km/h 61.6% 0in /  0.0mm
03:04 60.3 °F /  15.7 °C 47.1 °F /  8.4 °C 30.2in /  1021.4hPa Sur 3.8mph /  6.1km/h 7mph /  11.3km/h 62% 0in /  0.0mm
03:09 59.9 °F /  15.5 °C 47.3 °F /  8.5 °C 30.2in /  1021.4hPa SSO 4mph /  6.5km/h 7.6mph /  12.2km/h 62.9% 0in /  0.0mm
03:14 59.7 °F /  15.4 °C 47.1 °F /  8.4 °C 30.2in /  1021.4hPa SO 4.5mph /  7.3km/h 8.1mph /  13km/h 63.2% 0in /  0.0mm
03:19 59.5 °F /  15.3 °C 47.3 °F /  8.5 °C 30.2in /  1021.4hPa SSO 4.7mph /  7.6km/h 8mph /  12.9km/h 64% 0in /  0.0mm
03:24 59.5 °F /  15.3 °C 47.3 °F /  8.5 °C 30.2in /  1021.4hPa SSO 3.9mph /  6.3km/h 8.1mph /  13km/h 64% 0in /  0.0mm
03:29 59.5 °F /  15.3 °C 47.3 °F /  8.5 °C 30.2in /  1021.4hPa SO 3.6mph /  5.8km/h 8mph /  12.9km/h 64% 0in /  0.0mm
03:34 59.5 °F /  15.3 °C 47.3 °F /  8.5 °C 30.2in /  1021.4hPa SSO 4.4mph /  7.1km/h 7mph /  11.3km/h 63.9% 0in /  0.0mm
03:39 59.7 °F /  15.4 °C 47.3 °F /  8.5 °C 30.2in /  1021.4hPa SSE 4.7mph /  7.6km/h 6mph /  9.7km/h 63.7% 0in /  0.0mm
03:44 59.5 °F /  15.3 °C 47.5 °F /  8.6 °C 30.2in /  1021.2hPa SE 3.9mph /  6.3km/h 7.4mph /  11.9km/h 64.3% 0in /  0.0mm
03:49 59 °F /  15 °C 47.5 °F /  8.6 °C 30.2in /  1021.2hPa SSE 3.6mph /  5.8km/h 7mph /  11.3km/h 65.4% 0in /  0.0mm
03:54 58.6 °F /  14.8 °C 47.3 °F /  8.5 °C 30.2in /  1021.4hPa SSO 4.4mph /  7.1km/h 7mph /  11.3km/h 66% 0in /  0.0mm
03:59 58.6 °F /  14.8 °C 47.3 °F /  8.5 °C 30.2in /  1021.4hPa SSO 4.7mph /  7.6km/h 8.5mph /  13.7km/h 66% 0in /  0.0mm
04:04 58.8 °F /  14.9 °C 47.5 °F /  8.6 °C 30.2in /  1021.4hPa SSO 5.1mph /  8.2km/h 9mph /  14.5km/h 66% 0in /  0.0mm
04:09 58.8 °F /  14.9 °C 47.5 °F /  8.6 °C 30.2in /  1021.4hPa SO 5.2mph /  8.4km/h 7mph /  11.3km/h 66% 0in /  0.0mm
04:14 58.8 °F /  14.9 °C 47.3 °F /  8.5 °C 30.2in /  1021.1hPa SO 4.5mph /  7.3km/h 8.1mph /  13km/h 65.7% 0in /  0.0mm
04:19 59 °F /  15 °C 47.3 °F /  8.5 °C 30.2in /  1021.1hPa SSO 4.3mph /  6.9km/h 8.1mph /  13km/h 65% 0in /  0.0mm
04:24 59.4 °F /  15.2 °C 47.5 °F /  8.6 °C 30.2in /  1021.1hPa SO 4.6mph /  7.4km/h 7mph /  11.3km/h 64.9% 0in /  0.0mm
04:29 59.4 °F /  15.2 °C 47.1 °F /  8.4 °C 30.2in /  1021.0hPa SO 4.7mph /  7.6km/h 6.9mph /  11.1km/h 64% 0in /  0.0mm
04:34 59.5 °F /  15.3 °C 47.3 °F /  8.5 °C 30.2in /  1021.0hPa SO 4.2mph /  6.8km/h 7mph /  11.3km/h 64% 0in /  0.0mm
04:39 59.5 °F /  15.3 °C 47.3 °F /  8.5 °C 30.2in /  1021.0hPa SO 4mph /  6.5km/h 9.2mph /  14.8km/h 63.8% 0in /  0.0mm
04:44 59.5 °F /  15.3 °C 46.9 °F /  8.3 °C 30.2in /  1021.0hPa SO 5mph /  8.1km/h 9mph /  14.5km/h 63% 0in /  0.0mm
04:49 59.7 °F /  15.4 °C 47.1 °F /  8.4 °C 30.2in /  1021.0hPa SO 5.4mph /  8.7km/h 9.7mph /  15.6km/h 63% 0in /  0.0mm
04:54 59.9 °F /  15.5 °C 47.1 °F /  8.4 °C 30.2in /  1021.0hPa SO 5.3mph /  8.5km/h 10.4mph /  16.7km/h 62.8% 0in /  0.0mm
04:59 60.1 °F /  15.6 °C 46.9 °F /  8.3 °C 30.1in /  1020.8hPa SSO 5.2mph /  8.4km/h 10mph /  16.1km/h 62% 0in /  0.0mm
05:04 60.1 °F /  15.6 °C 46.9 °F /  8.3 °C 30.1in /  1020.8hPa SSO 5.2mph /  8.4km/h 8mph /  12.9km/h 62% 0in /  0.0mm
05:09 60.1 °F /  15.6 °C 47.1 °F /  8.4 °C 30.2in /  1020.9hPa SSO 5.2mph /  8.4km/h 8.1mph /  13km/h 62.5% 0in /  0.0mm
05:14 59.7 °F /  15.4 °C 47.1 °F /  8.4 °C 30.2in /  1020.9hPa SSO 4.8mph /  7.8km/h 10.4mph /  16.7km/h 63% 0in /  0.0mm
05:19 59.5 °F /  15.3 °C 46.9 °F /  8.3 °C 30.2in /  1020.9hPa SSO 4.7mph /  7.6km/h 11.5mph /  18.5km/h 63% 0in /  0.0mm
05:24 59.5 °F /  15.3 °C 47.3 °F /  8.5 °C 30.2in /  1021.0hPa SSO 6.3mph /  10.2km/h 12mph /  19.3km/h 63.9% 0in /  0.0mm
05:29 59.4 °F /  15.2 °C 47.1 °F /  8.4 °C 30.2in /  1021.0hPa SSO 6.9mph /  11.1km/h 12.3mph /  19.8km/h 64% 0in /  0.0mm
05:34 59.4 °F /  15.2 °C 47.1 °F /  8.4 °C 30.2in /  1021.0hPa SSO 6.9mph /  11.1km/h 13.5mph /  21.7km/h 64% 0in /  0.0mm
05:39 59.4 °F /  15.2 °C 47.1 °F /  8.4 °C 30.2in /  1021.1hPa SSO 6.9mph /  11.1km/h 14mph /  22.5km/h 64% 0in /  0.0mm
05:44 59.4 °F /  15.2 °C 47.3 °F /  8.5 °C 30.2in /  1021.1hPa SSO 6.9mph /  11.1km/h 12mph /  19.3km/h 64% 0in /  0.0mm
05:49 59.5 °F /  15.3 °C 47.1 °F /  8.4 °C 30.2in /  1021.1hPa SSO 6.9mph /  11.1km/h 12mph /  19.3km/h 63.7% 0in /  0.0mm
05:54 59.7 °F /  15.4 °C 47.1 °F /  8.4 °C 30.2in /  1021.2hPa SSO 6.4mph /  10.3km/h 11mph /  17.7km/h 63% 0in /  0.0mm
05:59 59.7 °F /  15.4 °C 47.1 °F /  8.4 °C 30.2in /  1021.2hPa SSO 6.2mph /  10km/h 8.1mph /  13km/h 63% 0in /  0.0mm
06:04 59.7 °F /  15.4 °C 47.1 °F /  8.4 °C 30.2in /  1021.2hPa SSO 5.6mph /  9km/h 8.1mph /  13km/h 62.9% 0in /  0.0mm
06:09 59.9 °F /  15.5 °C 46.8 °F /  8.2 °C 30.2in /  1021.5hPa SSO 5.4mph /  8.7km/h 8.1mph /  13km/h 62% 0in /  0.0mm
06:14 60.1 °F /  15.6 °C 46.9 °F /  8.3 °C 30.2in /  1021.5hPa SSO 5.4mph /  8.7km/h 11.5mph /  18.5km/h 62% 0in /  0.0mm
06:19 59.9 °F /  15.5 °C 46.9 °F /  8.3 °C 30.2in /  1021.5hPa SO 5.4mph /  8.7km/h 12mph /  19.3km/h 62% 0in /  0.0mm
06:24 59.9 °F /  15.5 °C 46.8 °F /  8.2 °C 30.2in /  1021.5hPa SO 6mph /  9.6km/h 10mph /  16.1km/h 62.2% 0in /  0.0mm
06:29 59.7 °F /  15.4 °C 47.1 °F /  8.4 °C 30.2in /  1021.4hPa SSO 6.2mph /  10km/h 10mph /  16.1km/h 63% 0in /  0.0mm
06:34 59.5 °F /  15.3 °C 46.9 °F /  8.3 °C 30.2in /  1021.4hPa SO 4.8mph /  7.8km/h 7mph /  11.3km/h 63% 0in /  0.0mm
06:39 59.5 °F /  15.3 °C 46.9 °F /  8.3 °C 30.2in /  1021.6hPa SO 4.3mph /  6.9km/h 8.1mph /  13km/h 63% 0in /  0.0mm
06:44 59.4 °F /  15.2 °C 47.1 °F /  8.4 °C 30.2in /  1021.6hPa SO 4.1mph /  6.6km/h 8mph /  12.9km/h 63.8% 0in /  0.0mm
06:49 59.4 °F /  15.2 °C 47.1 °F /  8.4 °C 30.2in /  1021.6hPa SO 4mph /  6.5km/h 7mph /  11.3km/h 64% 0in /  0.0mm
06:54 59.4 °F /  15.2 °C 47.1 °F /  8.4 °C 30.2in /  1021.6hPa SO 4mph /  6.5km/h 6.2mph /  10km/h 64% 0in /  0.0mm
06:59 59.2 °F /  15.1 °C 46.9 °F /  8.3 °C 30.2in /  1021.5hPa SO 4mph /  6.5km/h 6mph /  9.7km/h 64% 0in /  0.0mm
07:04 59.2 °F /  15.1 °C 46.9 °F /  8.3 °C 30.2in /  1021.5hPa SO 3.3mph /  5.3km/h 6mph /  9.7km/h 64% 0in /  0.0mm
07:09 58.8 °F /  14.9 °C 46.8 °F /  8.2 °C 30.2in /  1021.6hPa SO 3.1mph /  5km/h 5mph /  8km/h 64% 0in /  0.0mm
07:14 58.8 °F /  14.9 °C 46.9 °F /  8.3 °C 30.2in /  1021.6hPa SO 2.3mph /  3.7km/h 8.1mph /  13km/h 64.7% 0in /  0.0mm
07:19 58.6 °F /  14.8 °C 46.9 °F /  8.3 °C 30.2in /  1021.6hPa SO 2mph /  3.2km/h 8mph /  12.9km/h 65% 0in /  0.0mm
07:24 58.6 °F /  14.8 °C 46.8 °F /  8.2 °C 30.2in /  1021.6hPa SO 3.5mph /  5.6km/h 6.2mph /  10km/h 65% 0in /  0.0mm
07:29 58.5 °F /  14.7 °C 46.8 °F /  8.2 °C 30.2in /  1021.6hPa OSO 4mph /  6.5km/h 6mph /  9.7km/h 65% 0in /  0.0mm
07:34 58.3 °F /  14.6 °C 46.9 °F /  8.3 °C 30.2in /  1021.6hPa OSO 2.8mph /  4.5km/h 6mph /  9.7km/h 65.9% 0in /  0.0mm
07:39 58.1 °F /  14.5 °C 46.9 °F /  8.3 °C 30.2in /  1021.6hPa OSO 2.4mph /  3.9km/h 3mph /  4.8km/h 66.3% 0in /  0.0mm
07:44 57.7 °F /  14.3 °C 46.9 °F /  8.3 °C 30.2in /  1021.6hPa OSO 0.7mph /  1.1km/h 2mph /  3.2km/h 67% 0in /  0.0mm
07:49 57.6 °F /  14.2 °C 46.9 °F /  8.3 °C 30.2in /  1021.6hPa Calm   2.3mph /  3.7km/h 67.5% 0in /  0.0mm
07:54 57.6 °F /  14.2 °C 47.1 °F /  8.4 °C 30.2in /  1021.6hPa Calm   3.5mph /  5.6km/h 68% 0in /  0.0mm
07:59 57.4 °F /  14.1 °C 47.1 °F /  8.4 °C 30.2in /  1021.6hPa Calm   3.5mph /  5.6km/h 68.8% 0in /  0.0mm
08:04 57 °F /  13.9 °C 46.9 °F /  8.3 °C 30.2in /  1021.6hPa OSO 1.4mph /  2.2km/h 3mph /  4.8km/h 69% 0in /  0.0mm
08:09 57 °F /  13.9 °C 46.9 °F /  8.3 °C 30.2in /  1021.6hPa SO 1.8mph /  2.9km/h 4.7mph /  7.6km/h 69% 0in /  0.0mm
08:14 57.2 °F /  14 °C 47.1 °F /  8.4 °C 30.2in /  1021.6hPa SO 2.2mph /  3.6km/h 5.2mph /  8.4km/h 69% 0in /  0.0mm
08:19 57.4 °F /  14.1 °C 46.9 °F /  8.3 °C 30.2in /  1021.6hPa SO 2.4mph /  3.9km/h 5.8mph /  9.3km/h 68.2% 0in /  0.0mm
08:24 57.6 °F /  14.2 °C 47.1 °F /  8.4 °C 30.2in /  1021.7hPa SO 3.3mph /  5.3km/h 6mph /  9.7km/h 68% 0in /  0.0mm
08:29 57.6 °F /  14.2 °C 47.1 °F /  8.4 °C 30.2in /  1021.7hPa SO 3.6mph /  5.8km/h 6mph /  9.7km/h 68% 0in /  0.0mm
08:34 57.4 °F /  14.1 °C 46.9 °F /  8.3 °C 30.2in /  1021.7hPa SO 3.6mph /  5.8km/h 6mph /  9.7km/h 68% 0in /  0.0mm
08:39 57.4 °F /  14.1 °C 46.9 °F /  8.3 °C 30.2in /  1021.7hPa SO 3.6mph /  5.8km/h 5mph /  8km/h 68% 0in /  0.0mm
08:44 57.4 °F /  14.1 °C 46.9 °F /  8.3 °C 30.2in /  1021.6hPa OSO 3.2mph /  5.2km/h 5mph /  8km/h 68.2% 0in /  0.0mm
08:49 57.2 °F /  14 °C 47.1 °F /  8.4 °C 30.2in /  1021.6hPa SO 3.1mph /  5km/h 5.8mph /  9.3km/h 69% 0in /  0.0mm
08:54 57 °F /  13.9 °C 46.9 °F /  8.3 °C 30.2in /  1021.8hPa SO 3.1mph /  5km/h 6mph /  9.7km/h 69% 0in /  0.0mm
08:59 57.2 °F /  14 °C 47.1 °F /  8.4 °C 30.2in /  1021.8hPa SO 3.1mph /  5km/h 5mph /  8km/h 69.1% 0in /  0.0mm
09:04 57.4 °F /  14.1 °C 47.3 °F /  8.5 °C 30.2in /  1021.8hPa SSO 2.9mph /  4.7km/h 6.9mph /  11.1km/h 69% 0in /  0.0mm
09:09 57.7 °F /  14.3 °C 47.3 °F /  8.5 °C 30.2in /  1022.1hPa SO 2.9mph /  4.7km/h 7mph /  11.3km/h 68.4% 0in /  0.0mm
09:14 57.9 °F /  14.4 °C 47.3 °F /  8.5 °C 30.2in /  1022.1hPa SSO 3.7mph /  5.9km/h 6.9mph /  11.1km/h 67.7% 0in /  0.0mm
09:19 58.5 °F /  14.7 °C 47.3 °F /  8.5 °C 30.2in /  1022.1hPa SSO 4mph /  6.5km/h 9.2mph /  14.8km/h 66.7% 0in /  0.0mm
09:24 58.6 °F /  14.8 °C 47.3 °F /  8.5 °C 30.2in /  1022.1hPa SSO 5mph /  8.1km/h 9.2mph /  14.8km/h 65.8% 0in /  0.0mm
09:29 58.8 °F /  14.9 °C 47.1 °F /  8.4 °C 30.2in /  1022.1hPa SSO 5.4mph /  8.7km/h 9mph /  14.5km/h 65% 0in /  0.0mm
09:34 59.2 °F /  15.1 °C 47.5 °F /  8.6 °C 30.2in /  1022.1hPa SSO 5.3mph /  8.5km/h 8.1mph /  13km/h 65% 0in /  0.0mm
09:39 59.4 °F /  15.2 °C 47.5 °F /  8.6 °C 30.2in /  1022.2hPa SSO 5.2mph /  8.4km/h 8.5mph /  13.7km/h 64.5% 0in /  0.0mm
09:44 59.5 °F /  15.3 °C 47.5 °F /  8.6 °C 30.2in /  1022.2hPa SSO 5.3mph /  8.6km/h 10mph /  16.1km/h 64.2% 0in /  0.0mm
09:49 59.7 °F /  15.4 °C 47.5 °F /  8.6 °C 30.2in /  1022.2hPa SSO 5.4mph /  8.7km/h 10.4mph /  16.7km/h 64% 0in /  0.0mm
09:54 60.1 °F /  15.6 °C 47.7 °F /  8.7 °C 30.2in /  1022.4hPa SSO 6mph /  9.6km/h 10mph /  16.1km/h 63.6% 0in /  0.0mm
09:59 60.4 °F /  15.8 °C 47.7 °F /  8.7 °C 30.2in /  1022.4hPa SO 6.2mph /  10km/h 8.1mph /  13km/h 63% 0in /  0.0mm
10:04 60.6 °F /  15.9 °C 47.7 °F /  8.7 °C 30.2in /  1022.4hPa SO 5mph /  8.1km/h 8.1mph /  13km/h 62.3% 0in /  0.0mm
10:09 61 °F /  16.1 °C 47.8 °F /  8.8 °C 30.2in /  1022.4hPa SSO 4.7mph /  7.6km/h 8mph /  12.9km/h 62% 0in /  0.0mm
10:14 61.2 °F /  16.2 °C 47.7 °F /  8.7 °C 30.2in /  1022.2hPa SSO 5.1mph /  8.2km/h 9.7mph /  15.6km/h 61% 0in /  0.0mm
10:19 61.3 °F /  16.3 °C 47.8 °F /  8.8 °C 30.2in /  1022.2hPa SSO 5.2mph /  8.4km/h 10mph /  16.1km/h 61% 0in /  0.0mm
10:24 61.7 °F /  16.5 °C 48.2 °F /  9 °C 30.2in /  1022.3hPa Sur 4.3mph /  7km/h 7.6mph /  12.2km/h 61% 0in /  0.0mm
10:29 62.1 °F /  16.7 °C 48.2 °F /  9 °C 30.2in /  1022.3hPa SO 4mph /  6.5km/h 10mph /  16.1km/h 60.2% 0in /  0.0mm
10:34 62.2 °F /  16.8 °C 48.2 °F /  9 °C 30.2in /  1022.3hPa SSO 4.2mph /  6.8km/h 10mph /  16.1km/h 60.1% 0in /  0.0mm
10:39 62.4 °F /  16.9 °C 48.4 °F /  9.1 °C 30.2in /  1022.3hPa SO 4.3mph /  6.9km/h 10mph /  16.1km/h 59.9% 0in /  0.0mm
10:44 62.8 °F /  17.1 °C 48.6 °F /  9.2 °C 30.2in /  1022.3hPa SO 5mph /  8km/h 9.2mph /  14.8km/h 60% 0in /  0.0mm
10:49 63 °F /  17.2 °C 48.9 °F /  9.4 °C 30.2in /  1022.3hPa SSO 5.2mph /  8.4km/h 9mph /  14.5km/h 60.1% 0in /  0.0mm
10:54 63.1 °F /  17.3 °C 49.1 °F /  9.5 °C 30.2in /  1022.3hPa SSO 4.8mph /  7.8km/h 8.5mph /  13.7km/h 60% 0in /  0.0mm
10:59 63.5 °F /  17.5 °C 49.3 °F /  9.6 °C 30.2in /  1022.2hPa SSO 4.7mph /  7.6km/h 9.7mph /  15.6km/h 59.9% 0in /  0.0mm
11:04 63.7 °F /  17.6 °C 49.5 °F /  9.7 °C 30.2in /  1022.2hPa SSO 5.3mph /  8.5km/h 10mph /  16.1km/h 59.6% 0in /  0.0mm
11:09 64 °F /  17.8 °C 49.3 °F /  9.6 °C 30.2in /  1022.2hPa SO 5.4mph /  8.7km/h 8.1mph /  13km/h 58.7% 0in /  0.0mm
11:14 64.2 °F /  17.9 °C 49.1 °F /  9.5 °C 30.2in /  1022.0hPa OSO 4.6mph /  7.4km/h 8mph /  12.9km/h 58% 0in /  0.0mm
11:19 64.8 °F /  18.2 °C 49.5 °F /  9.7 °C 30.2in /  1022.0hPa OSO 4.3mph /  6.9km/h 8.1mph /  13km/h 57.7% 0in /  0.0mm
11:24 64.9 °F /  18.3 °C 49.3 °F /  9.6 °C 30.2in /  1022.0hPa SO 4.1mph /  6.6km/h 10.4mph /  16.7km/h 56.8% 0in /  0.0mm
11:29 65.3 °F /  18.5 °C 48.9 °F /  9.4 °C 30.2in /  1021.9hPa OSO 4mph /  6.5km/h 10mph /  16.1km/h 55.5% 0in /  0.0mm
11:34 65.5 °F /  18.6 °C 48.9 °F /  9.4 °C 30.2in /  1021.9hPa OSO 4.9mph /  7.9km/h 11.4mph /  18.3km/h 55% 0in /  0.0mm
11:39 65.7 °F /  18.7 °C 48.7 °F /  9.3 °C 30.2in /  1021.9hPa OSO 5.2mph /  8.4km/h 12mph /  19.3km/h 54.4% 0in /  0.0mm
11:44 65.8 °F /  18.8 °C 49.1 °F /  9.5 °C 30.2in /  1021.9hPa Oeste 6.1mph /  9.8km/h 11mph /  17.7km/h 54.6% 0in /  0.0mm
11:49 66.4 °F /  19.1 °C 49.3 °F /  9.6 °C 30.2in /  1021.9hPa ONO 6.4mph /  10.3km/h 9mph /  14.5km/h 54% 0in /  0.0mm
11:54 66.7 °F /  19.3 °C 48.9 °F /  9.4 °C 30.2in /  1021.9hPa OSO 4.7mph /  7.5km/h 9mph /  14.5km/h 52.9% 0in /  0.0mm
11:59 67.1 °F /  19.5 °C 49.3 °F /  9.6 °C 30.2in /  1021.9hPa OSO 4mph /  6.5km/h 11.5mph /  18.5km/h 52.9% 0in /  0.0mm
12:04 67.5 °F /  19.7 °C 49.5 °F /  9.7 °C 30.2in /  1021.9hPa Oeste 4.5mph /  7.3km/h 12mph /  19.3km/h 52.4% 0in /  0.0mm
12:09 67.5 °F /  19.7 °C 49.3 °F /  9.6 °C 30.2in /  1021.9hPa OSO 4.7mph /  7.6km/h 9.2mph /  14.8km/h 52% 0in /  0.0mm
12:14 67.6 °F /  19.8 °C 49.3 °F /  9.6 °C 30.2in /  1021.7hPa OSO 4.7mph /  7.6km/h 9.2mph /  14.8km/h 51.8% 0in /  0.0mm
12:19 67.8 °F /  19.9 °C 49.3 °F /  9.6 °C 30.2in /  1021.7hPa SO 4.7mph /  7.6km/h 9mph /  14.5km/h 51.4% 0in /  0.0mm
12:24 67.8 °F /  19.9 °C 49.3 °F /  9.6 °C 30.2in /  1021.8hPa OSO 4.2mph /  6.8km/h 8mph /  12.9km/h 51.4% 0in /  0.0mm
12:29 68.4 °F /  20.2 °C 49.5 °F /  9.7 °C 30.2in /  1021.8hPa SSE 4mph /  6.5km/h 7.6mph /  12.2km/h 51% 0in /  0.0mm
12:34 68.5 °F /  20.3 °C 49.6 °F /  9.8 °C 30.2in /  1021.8hPa Sur 3.7mph /  6km/h 8.1mph /  13km/h 50.8% 0in /  0.0mm
12:39 68.7 °F /  20.4 °C 49.6 °F /  9.8 °C 30.2in /  1021.8hPa SSO 3.6mph /  5.8km/h 8.1mph /  13km/h 50.4% 0in /  0.0mm
12:44 69.1 °F /  20.6 °C 49.8 °F /  9.9 °C 30.2in /  1021.7hPa Oeste 4.1mph /  6.6km/h 8.1mph /  13km/h 50.3% 0in /  0.0mm
12:49 69.3 °F /  20.7 °C 49.8 °F /  9.9 °C 30.2in /  1021.7hPa SO 4.3mph /  6.9km/h 9.2mph /  14.8km/h 50% 0in /  0.0mm
12:54 69.3 °F /  20.7 °C 49.8 °F /  9.9 °C 30.2in /  1021.7hPa SO 4.6mph /  7.4km/h 10mph /  16.1km/h 50% 0in /  0.0mm
12:59 69.3 °F /  20.7 °C 49.8 °F /  9.9 °C 30.2in /  1021.5hPa SSO 4.7mph /  7.6km/h 10.4mph /  16.7km/h 50% 0in /  0.0mm
13:04 69.4 °F /  20.8 °C 49.8 °F /  9.9 °C 30.2in /  1021.5hPa OSO 5.1mph /  8.2km/h 10mph /  16.1km/h 49.8% 0in /  0.0mm
13:09 69.4 °F /  20.8 °C 49.5 °F /  9.7 °C 30.2in /  1021.5hPa OSO 5.2mph /  8.4km/h 8.1mph /  13km/h 49% 0in /  0.0mm
13:14 69.8 °F /  21 °C 49.8 °F /  9.9 °C 30.2in /  1021.5hPa SSO 4.8mph /  7.8km/h 10.4mph /  16.7km/h 49.3% 0in /  0.0mm
13:19 70 °F /  21.1 °C 50.2 °F /  10.1 °C 30.2in /  1021.5hPa Sur 4.7mph /  7.6km/h 10mph /  16.1km/h 49.4% 0in /  0.0mm
13:24 70.3 °F /  21.3 °C 50.2 °F /  10.1 °C 30.2in /  1021.5hPa SSE 5.2mph /  8.4km/h 8mph /  12.9km/h 48.8% 0in /  0.0mm
13:29 70.5 °F /  21.4 °C 50.4 °F /  10.2 °C 30.2in /  1021.2hPa SO 5.4mph /  8.7km/h 8.1mph /  13km/h 48.7% 0in /  0.0mm
13:34 70.9 °F /  21.6 °C 50 °F /  10 °C 30.2in /  1021.2hPa Sur 4.6mph /  7.4km/h 8mph /  12.9km/h 47.6% 0in /  0.0mm
13:39 71.2 °F /  21.8 °C 50.4 °F /  10.2 °C 30.2in /  1021.2hPa SSO 4.3mph /  6.9km/h 8.1mph /  13km/h 47.8% 0in /  0.0mm
13:44 71.6 °F /  22 °C 50.2 °F /  10.1 °C 30.2in /  1021.1hPa ONO 3.8mph /  6.1km/h 9.2mph /  14.8km/h 46.7% 0in /  0.0mm
13:49 72 °F /  22.2 °C 50 °F /  10 °C 30.2in /  1021.1hPa NO 3.6mph /  5.8km/h 9mph /  14.5km/h 46% 0in /  0.0mm
13:54 72 °F /  22.2 °C 50 °F /  10 °C 30.2in /  1021.1hPa OSO 4.4mph /  7.1km/h 10.7mph /  17.2km/h 45.9% 0in /  0.0mm
13:59 72 °F /  22.2 °C 49.8 °F /  9.9 °C 30.2in /  1020.9hPa SO 4.7mph /  7.6km/h 11mph /  17.7km/h 45.6% 0in /  0.0mm
14:04 72 °F /  22.2 °C 50 °F /  10 °C 30.2in /  1020.9hPa SSO 4.7mph /  7.6km/h 9.2mph /  14.8km/h 46% 0in /  0.0mm
14:09 72.1 °F /  22.3 °C 50.2 °F /  10.1 °C 30.2in /  1020.9hPa SO 4.7mph /  7.6km/h 11.8mph /  19km/h 46% 0in /  0.0mm
14:14 72.5 °F /  22.5 °C 50.5 °F /  10.3 °C 30.1in /  1020.6hPa SO 4.2mph /  6.7km/h 12mph /  19.3km/h 45.8% 0in /  0.0mm
14:19 73 °F /  22.8 °C 50.4 °F /  10.2 °C 30.1in /  1020.6hPa NNO 4mph /  6.5km/h 6.2mph /  10km/h 44.9% 0in /  0.0mm
14:24 73.2 °F /  22.9 °C 50 °F /  10 °C 30.1in /  1020.6hPa SO 3.4mph /  5.4km/h 8.5mph /  13.7km/h 44.2% 0in /  0.0mm
14:29 73 °F /  22.8 °C 50.2 °F /  10.1 °C 30.1in /  1020.5hPa OSO 3.1mph /  5km/h 9.2mph /  14.8km/h 44.6% 0in /  0.0mm
14:34 73 °F /  22.8 °C 50.4 °F /  10.2 °C 30.1in /  1020.5hPa NO 4.3mph /  6.9km/h 9.2mph /  14.8km/h 45% 0in /  0.0mm
14:39 73.2 °F /  22.9 °C 50.5 °F /  10.3 °C 30.1in /  1020.5hPa NNO 4.7mph /  7.6km/h 9mph /  14.5km/h 45% 0in /  0.0mm
14:44 73.6 °F /  23.1 °C 50.7 °F /  10.4 °C 30.1in /  1020.2hPa SO 3.5mph /  5.7km/h 6.9mph /  11.1km/h 44.6% 0in /  0.0mm
14:49 73.2 °F /  22.9 °C 50.4 °F /  10.2 °C 30.1in /  1020.2hPa OSO 3.1mph /  5km/h 8.5mph /  13.7km/h 44.5% 0in /  0.0mm
14:54 73.2 °F /  22.9 °C 50.7 °F /  10.4 °C 30.1in /  1020.2hPa SSO 3.7mph /  6km/h 9mph /  14.5km/h 45.1% 0in /  0.0mm
14:59 73.2 °F /  22.9 °C 50.5 °F /  10.3 °C 30.1in /  1020.0hPa SSO 4mph /  6.5km/h 7mph /  11.3km/h 45% 0in /  0.0mm
15:04 73.4 °F /  23 °C 50.7 °F /  10.4 °C 30.1in /  1020.0hPa Sur 2.8mph /  4.5km/h 7.4mph /  11.9km/h 44.8% 0in /  0.0mm
15:09 73.8 °F /  23.2 °C 50.4 °F /  10.2 °C 30.1in /  1020.1hPa SE 2.4mph /  3.9km/h 7mph /  11.3km/h 44% 0in /  0.0mm
15:14 73.8 °F /  23.2 °C 50.7 °F /  10.4 °C 30.1in /  1020.1hPa ENE 3.6mph /  5.8km/h 6mph /  9.7km/h 44.3% 0in /  0.0mm
15:19 73.9 °F /  23.3 °C 50.5 °F /  10.3 °C 30.1in /  1020.1hPa SSE 4mph /  6.5km/h 6mph /  9.7km/h 44% 0in /  0.0mm
15:24 74.1 °F /  23.4 °C 50.9 °F /  10.5 °C 30.1in /  1020.1hPa Este 2.9mph /  4.6km/h 5mph /  8km/h 44% 0in /  0.0mm
15:29 74.3 °F /  23.5 °C 50.5 °F /  10.3 °C 30.1in /  1019.8hPa SE 2.4mph /  3.9km/h 5.8mph /  9.3km/h 43.3% 0in /  0.0mm
15:34 74.3 °F /  23.5 °C 50.4 °F /  10.2 °C 30.1in /  1019.8hPa ESE 2.7mph /  4.4km/h 6.4mph /  10.3km/h 43.1% 0in /  0.0mm
15:39 73.9 °F /  23.3 °C 50.4 °F /  10.2 °C 30.1in /  1019.8hPa NE 2.9mph /  4.7km/h 6.9mph /  11.1km/h 43.4% 0in /  0.0mm
15:44 73.8 °F /  23.2 °C 50.5 °F /  10.3 °C 30.1in /  1019.7hPa NE 3.4mph /  5.5km/h 7mph /  11.3km/h 43.9% 0in /  0.0mm
15:49 73.8 °F /  23.2 °C 50.5 °F /  10.3 °C 30.1in /  1019.7hPa ENE 3.6mph /  5.8km/h 6mph /  9.7km/h 44% 0in /  0.0mm
15:54 73.9 °F /  23.3 °C 50.5 °F /  10.3 °C 30.1in /  1019.7hPa SE 3.1mph /  5km/h 6.9mph /  11.1km/h 43.9% 0in /  0.0mm
15:59 73.9 °F /  23.3 °C 50.4 °F /  10.2 °C 30.1in /  1019.5hPa SSO 2.9mph /  4.7km/h 7mph /  11.3km/h 43.4% 0in /  0.0mm
16:04 74.1 °F /  23.4 °C 50.7 °F /  10.4 °C 30.1in /  1019.5hPa Oeste 3mph /  4.9km/h 6mph /  9.7km/h 43.8% 0in /  0.0mm
16:09 74.7 °F /  23.7 °C 50.5 °F /  10.3 °C 30.1in /  1019.5hPa NNO 3.1mph /  5km/h 6mph /  9.7km/h 43% 0in /  0.0mm
16:14 74.8 °F /  23.8 °C 50.4 °F /  10.2 °C 30.1in /  1019.4hPa Oeste 2.2mph /  3.5km/h 5.9mph /  9.5km/h 42% 0in /  0.0mm
16:19 75 °F /  23.9 °C 49.8 °F /  9.9 °C 30.1in /  1019.4hPa ONO 1.8mph /  2.9km/h 6mph /  9.7km/h 41% 0in /  0.0mm
16:24 75.4 °F /  24.1 °C 50.2 °F /  10.1 °C 30.1in /  1019.4hPa North 1.9mph /  3.1km/h 5mph /  8km/h 41.2% 0in /  0.0mm
16:29 75.7 °F /  24.3 °C 50.4 °F /  10.2 °C 30.1in /  1019.4hPa ESE 2mph /  3.2km/h 4.7mph /  7.6km/h 41% 0in /  0.0mm
16:34 75.9 °F /  24.4 °C 50.4 °F /  10.2 °C 30.1in /  1019.4hPa Sur 2mph /  3.2km/h 5.2mph /  8.4km/h 40.8% 0in /  0.0mm
16:39 76.1 °F /  24.5 °C 50.7 °F /  10.4 °C 30.1in /  1019.4hPa SO 2mph /  3.2km/h 5mph /  8km/h 41% 0in /  0.0mm
16:44 76.5 °F /  24.7 °C 50.2 °F /  10.1 °C 30.1in /  1019.3hPa SSE 2.3mph /  3.7km/h 5mph /  8km/h 40% 0in /  0.0mm
16:49 76.5 °F /  24.7 °C 50.2 °F /  10.1 °C 30.1in /  1019.3hPa SE 2.4mph /  3.9km/h 5mph /  8km/h 39.9% 0in /  0.0mm
16:54 76.3 °F /  24.6 °C 50.5 °F /  10.3 °C 30.1in /  1019.3hPa SE 2.4mph /  3.9km/h 6.2mph /  10km/h 40.5% 0in /  0.0mm
16:59 75.7 °F /  24.3 °C 50.5 °F /  10.3 °C 30.1in /  1019.2hPa Este 2.4mph /  3.9km/h 8.1mph /  13km/h 41.3% 0in /  0.0mm
17:04 75.4 °F /  24.1 °C 50.7 °F /  10.4 °C 30.1in /  1019.2hPa ESE 3.9mph /  6.3km/h 8.1mph /  13km/h 42% 0in /  0.0mm
17:09 75 °F /  23.9 °C 50.9 °F /  10.5 °C 30.1in /  1019.2hPa ESE 4.3mph /  6.9km/h 8.5mph /  13.7km/h 42.6% 0in /  0.0mm
17:14 75 °F /  23.9 °C 52 °F /  11.1 °C 30.1in /  1019.1hPa ESE 5.1mph /  8.2km/h 11.5mph /  18.5km/h 44.7% 0in /  0.0mm
17:19 74.7 °F /  23.7 °C 52.9 °F /  11.6 °C 30.1in /  1019.1hPa ESE 5.4mph /  8.7km/h 12mph /  19.3km/h 46.4% 0in /  0.0mm
17:24 74.7 °F /  23.7 °C 53.2 °F /  11.8 °C 30.1in /  1019.2hPa ESE 6.9mph /  11.1km/h 11.5mph /  18.5km/h 47.2% 0in /  0.0mm
17:29 74.7 °F /  23.7 °C 53.4 °F /  11.9 °C 30.1in /  1019.2hPa ESE 7.4mph /  11.9km/h 12mph /  19.3km/h 47.7% 0in /  0.0mm
17:34 74.5 °F /  23.6 °C 53.6 °F /  12 °C 30.1in /  1019.2hPa ESE 6.6mph /  10.7km/h 12mph /  19.3km/h 47.9% 0in /  0.0mm
17:39 74.3 °F /  23.5 °C 53.4 °F /  11.9 °C 30.1in /  1019.2hPa ESE 6.4mph /  10.3km/h 12mph /  19.3km/h 48% 0in /  0.0mm
17:44 74.1 °F /  23.4 °C 53.2 °F /  11.8 °C 30.1in /  1019.0hPa SE 6.4mph /  10.3km/h 12mph /  19.3km/h 48.1% 0in /  0.0mm
17:49 73.9 °F /  23.3 °C 53.6 °F /  12 °C 30.1in /  1019.0hPa SE 6.4mph /  10.3km/h 10.4mph /  16.7km/h 48.9% 0in /  0.0mm
17:54 73.9 °F /  23.3 °C 53.4 °F /  11.9 °C 30.1in /  1019.0hPa SE 6.3mph /  10.1km/h 10.4mph /  16.7km/h 49% 0in /  0.0mm
17:59 73.8 °F /  23.2 °C 53.6 °F /  12 °C 30.1in /  1019.0hPa ESE 6.2mph /  10km/h 10.4mph /  16.7km/h 49.3% 0in /  0.0mm
18:04 73.8 °F /  23.2 °C 54 °F /  12.2 °C 30.1in /  1019.0hPa ESE 5.6mph /  9km/h 7.4mph /  11.9km/h 50% 0in /  0.0mm
18:09 73.8 °F /  23.2 °C 54 °F /  12.2 °C 30.1in /  1019.0hPa SSE 5.4mph /  8.7km/h 9.7mph /  15.6km/h 50% 0in /  0.0mm
18:14 73.8 °F /  23.2 °C 54 °F /  12.2 °C 30.1in /  1019.0hPa SSE 5.4mph /  8.7km/h 10mph /  16.1km/h 50% 0in /  0.0mm
18:19 73.6 °F /  23.1 °C 53.8 °F /  12.1 °C 30.1in /  1019.0hPa SE 5.4mph /  8.7km/h 9mph /  14.5km/h 50% 0in /  0.0mm
18:24 73.6 °F /  23.1 °C 54 °F /  12.2 °C 30.1in /  1019.0hPa SE 4.9mph /  7.9km/h 8mph /  12.9km/h 50.2% 0in /  0.0mm
18:29 73.6 °F /  23.1 °C 54.1 °F /  12.3 °C 30.1in /  1018.9hPa SSE 4.7mph /  7.6km/h 7mph /  11.3km/h 50.7% 0in /  0.0mm
18:34 73.6 °F /  23.1 °C 54 °F /  12.2 °C 30.1in /  1018.9hPa SSE 4.2mph /  6.7km/h 7mph /  11.3km/h 50.3% 0in /  0.0mm
18:39 73.8 °F /  23.2 °C 54.1 °F /  12.3 °C 30.1in /  1018.9hPa Sur 4mph /  6.5km/h 6.9mph /  11.1km/h 50.3% 0in /  0.0mm
18:44 73.8 °F /  23.2 °C 54 °F /  12.2 °C 30.1in /  1018.8hPa SSE 3.4mph /  5.4km/h 7mph /  11.3km/h 50.2% 0in /  0.0mm
18:49 73.6 °F /  23.1 °C 54 °F /  12.2 °C 30.1in /  1018.8hPa Sur 3.1mph /  5km/h 6.9mph /  11.1km/h 50.5% 0in /  0.0mm
18:54 73 °F /  22.8 °C 54 °F /  12.2 °C 30.1in /  1018.9hPa SSO 3.8mph /  6.1km/h 8.1mph /  13km/h 51% 0in /  0.0mm
18:59 72.9 °F /  22.7 °C 53.6 °F /  12 °C 30.1in /  1018.9hPa SSO 4mph /  6.5km/h 8.1mph /  13km/h 51% 0in /  0.0mm
19:04 72.5 °F /  22.5 °C 53.4 °F /  11.9 °C 30.1in /  1018.9hPa Sur 4.2mph /  6.8km/h 8mph /  12.9km/h 51% 0in /  0.0mm
19:09 72.1 °F /  22.3 °C 53.6 °F /  12 °C 30.1in /  1019.0hPa Sur 4.3mph /  6.9km/h 6.2mph /  10km/h 51.9% 0in /  0.0mm
19:14 72 °F /  22.2 °C 53.4 °F /  11.9 °C 30.1in /  1019.0hPa Sur 4.1mph /  6.6km/h 6.9mph /  11.1km/h 52% 0in /  0.0mm
19:19 71.8 °F /  22.1 °C 53.4 °F /  11.9 °C 30.1in /  1019.0hPa SSO 4mph /  6.5km/h 7mph /  11.3km/h 52.5% 0in /  0.0mm
19:24 71.4 °F /  21.9 °C 53.4 °F /  11.9 °C 30.1in /  1019.1hPa SSO 3.7mph /  6km/h 6mph /  9.7km/h 53% 0in /  0.0mm
19:29 71.4 °F /  21.9 °C 53.4 °F /  11.9 °C 30.1in /  1019.1hPa SSO 3.6mph /  5.8km/h 5mph /  8km/h 53.2% 0in /  0.0mm
19:34 71.2 °F /  21.8 °C 53.8 °F /  12.1 °C 30.1in /  1019.1hPa SSE 2.3mph /  3.7km/h 5mph /  8km/h 54.3% 0in /  0.0mm
19:39 71.1 °F /  21.7 °C 54.1 °F /  12.3 °C 30.1in /  1019.3hPa Este 1.8mph /  2.9km/h 5mph /  8km/h 55.3% 0in /  0.0mm
19:44 70.7 °F /  21.5 °C 54.1 °F /  12.3 °C 30.1in /  1019.3hPa Este 1.8mph /  2.9km/h 4mph /  6.4km/h 56% 0in /  0.0mm
19:49 70.3 °F /  21.3 °C 53.8 °F /  12.1 °C 30.1in /  1019.3hPa Este 1.8mph /  2.9km/h 3mph /  4.8km/h 56% 0in /  0.0mm
19:54 70 °F /  21.1 °C 54 °F /  12.2 °C 30.1in /  1019.5hPa ESE 0.5mph /  0.8km/h 7.4mph /  11.9km/h 57% 0in /  0.0mm
19:59 69.4 °F /  20.8 °C 53.8 °F /  12.1 °C 30.1in /  1019.5hPa Calm   7mph /  11.3km/h 57.3% 0in /  0.0mm
20:04 69.3 °F /  20.7 °C 53.4 °F /  11.9 °C 30.1in /  1019.5hPa SO 3.1mph /  5km/h 9.7mph /  15.6km/h 57.2% 0in /  0.0mm
20:09 68.7 °F /  20.4 °C 53.2 °F /  11.8 °C 30.1in /  1019.6hPa SO 4mph /  6.5km/h 10mph /  16.1km/h 57.5% 0in /  0.0mm
20:14 68.5 °F /  20.3 °C 53.2 °F /  11.8 °C 30.1in /  1019.6hPa SO 5mph /  8.1km/h 9mph /  14.5km/h 58% 0in /  0.0mm
20:19 68.4 °F /  20.2 °C 53.1 °F /  11.7 °C 30.1in /  1019.6hPa SO 5.4mph /  8.7km/h 7.4mph /  11.9km/h 58.2% 0in /  0.0mm
20:24 68.2 °F /  20.1 °C 53.1 °F /  11.7 °C 30.1in /  1019.8hPa SSO 4.6mph /  7.4km/h 7mph /  11.3km/h 58.8% 0in /  0.0mm
20:29 67.8 °F /  19.9 °C 53.1 °F /  11.7 °C 30.1in /  1019.8hPa SSO 4.3mph /  6.9km/h 7mph /  11.3km/h 59% 0in /  0.0mm
20:34 67.6 °F /  19.8 °C 53.1 °F /  11.7 °C 30.1in /  1019.8hPa SE 4.3mph /  6.9km/h 7mph /  11.3km/h 59.4% 0in /  0.0mm
20:39 67.5 °F /  19.7 °C 53.4 °F /  11.9 °C 30.1in /  1020.0hPa SE 4.3mph /  6.9km/h 6mph /  9.7km/h 60.6% 0in /  0.0mm
20:44 67.3 °F /  19.6 °C 53.6 °F /  12 °C 30.1in /  1020.0hPa SE 3.4mph /  5.5km/h 5.4mph /  8.7km/h 61.4% 0in /  0.0mm
20:49 66.9 °F /  19.4 °C 53.6 °F /  12 °C 30.1in /  1020.0hPa ENE 3.1mph /  5km/h 6mph /  9.7km/h 62% 0in /  0.0mm
20:54 66.9 °F /  19.4 °C 53.4 °F /  11.9 °C 30.1in /  1020.2hPa ENE 3mph /  4.8km/h 6mph /  9.7km/h 62% 0in /  0.0mm
20:59 66.7 °F /  19.3 °C 53.4 °F /  11.9 °C 30.1in /  1020.2hPa ENE 2.9mph /  4.7km/h 4.6mph /  7.4km/h 62% 0in /  0.0mm
21:04 66.6 °F /  19.2 °C 53.2 °F /  11.8 °C 30.1in /  1020.2hPa ENE 2.2mph /  3.5km/h 5mph /  8km/h 62.3% 0in /  0.0mm
21:09 66.4 °F /  19.1 °C 53.2 °F /  11.8 °C 30.1in /  1020.2hPa ENE 2mph /  3.2km/h 3mph /  4.8km/h 62.4% 0in /  0.0mm
21:14 66.4 °F /  19.1 °C 52.9 °F /  11.6 °C 30.1in /  1020.2hPa ESE 1.6mph /  2.5km/h 4.3mph /  6.9km/h 61.9% 0in /  0.0mm
21:19 66.4 °F /  19.1 °C 52.5 °F /  11.4 °C 30.1in /  1020.2hPa SSE 1.4mph /  2.2km/h 5mph /  8km/h 61% 0in /  0.0mm
21:24 66.4 °F /  19.1 °C 52.2 °F /  11.2 °C 30.1in /  1020.2hPa SSO 2.1mph /  3.4km/h 5mph /  8km/h 60.3% 0in /  0.0mm
21:29 66.4 °F /  19.1 °C 52.2 °F /  11.2 °C 30.1in /  1020.1hPa SSE 2.4mph /  3.9km/h 5.2mph /  8.4km/h 60% 0in /  0.0mm
21:34 66.6 °F /  19.2 °C 52.2 °F /  11.2 °C 30.1in /  1020.1hPa SSE 2.9mph /  4.7km/h 5mph /  8km/h 60% 0in /  0.0mm
21:39 66.4 °F /  19.1 °C 52.3 °F /  11.3 °C 30.1in /  1020.3hPa SSE 3.1mph /  5km/h 5mph /  8km/h 60.7% 0in /  0.0mm
21:44 66.4 °F /  19.1 °C 52.5 °F /  11.4 °C 30.1in /  1020.3hPa SSE 2.2mph /  3.5km/h 3mph /  4.8km/h 61.2% 0in /  0.0mm
21:49 66.2 °F /  19 °C 52.7 °F /  11.5 °C 30.1in /  1020.3hPa ESE 1.8mph /  2.9km/h 3.5mph /  5.6km/h 62% 0in /  0.0mm
21:54 65.8 °F /  18.8 °C 52.7 °F /  11.5 °C 30.1in /  1020.3hPa Este 1.5mph /  2.4km/h 3mph /  4.8km/h 62.4% 0in /  0.0mm
21:59 65.7 °F /  18.7 °C 52.9 °F /  11.6 °C 30.1in /  1020.3hPa Este 1.4mph /  2.2km/h 2mph /  3.2km/h 63% 0in /  0.0mm
22:04 65.7 °F /  18.7 °C 52.9 °F /  11.6 °C 30.1in /  1020.3hPa Este 0.3mph /  0.5km/h   63.4% 0in /  0.0mm
22:09 65.5 °F /  18.6 °C 52.9 °F /  11.6 °C 30.1in /  1020.3hPa Calm   2.4mph /  3.9km/h 64% 0in /  0.0mm
22:14 65.1 °F /  18.4 °C 53.1 °F /  11.7 °C 30.1in /  1020.3hPa Calm   2.3mph /  3.7km/h 64.8% 0in /  0.0mm
22:19 65.1 °F /  18.4 °C 53.1 °F /  11.7 °C 30.1in /  1020.3hPa Calm   2mph /  3.2km/h 65% 0in /  0.0mm
22:24 64.9 °F /  18.3 °C 53.1 °F /  11.7 °C 30.1in /  1020.3hPa Calm   1.4mph /  2.3km/h 65.5% 0in /  0.0mm
22:29 64.9 °F /  18.3 °C 53.2 °F /  11.8 °C 30.1in /  1020.3hPa Calm   3.1mph /  5km/h 66% 0in /  0.0mm
22:34 64.8 °F /  18.2 °C 53.1 °F /  11.7 °C 30.1in /  1020.3hPa Calm   3.5mph /  5.6km/h 66% 0in /  0.0mm
22:39 64.8 °F /  18.2 °C 53.2 °F /  11.8 °C 30.1in /  1020.3hPa Calm   3.6mph /  5.8km/h 66.2% 0in /  0.0mm
22:44 64.6 °F /  18.1 °C 53.2 °F /  11.8 °C 30.1in /  1020.3hPa ESE 1.5mph /  2.4km/h 4mph /  6.4km/h 67% 0in /  0.0mm
22:49 64.2 °F /  17.9 °C 53.2 °F /  11.8 °C 30.1in /  1020.3hPa ESE 2mph /  3.2km/h 3mph /  4.8km/h 67.5% 0in /  0.0mm
22:54 64 °F /  17.8 °C 53.2 °F /  11.8 °C 30.1in /  1020.4hPa ESE 0.5mph /  0.8km/h 2.9mph /  4.7km/h 68% 0in /  0.0mm
22:59 63.7 °F /  17.6 °C 53.2 °F /  11.8 °C 30.1in /  1020.4hPa Calm   3mph /  4.8km/h 68.9% 0in /  0.0mm
23:04 63.5 °F /  17.5 °C 53.1 °F /  11.7 °C 30.1in /  1020.4hPa ESE 1.1mph /  1.7km/h 2mph /  3.2km/h 69% 0in /  0.0mm
23:09 63.1 °F /  17.3 °C 53.2 °F /  11.8 °C 30.1in /  1020.4hPa SE 1.4mph /  2.2km/h 4.7mph /  7.6km/h 69.9% 0in /  0.0mm
23:14 63 °F /  17.2 °C 53.4 °F /  11.9 °C 30.1in /  1020.4hPa SE 1.7mph /  2.7km/h 5mph /  8km/h 70.9% 0in /  0.0mm
23:19 62.8 °F /  17.1 °C 53.2 °F /  11.8 °C 30.1in /  1020.4hPa SE 1.8mph /  2.9km/h 4mph /  6.4km/h 71% 0in /  0.0mm
23:24 62.8 °F /  17.1 °C 53.4 °F /  11.9 °C 30.1in /  1020.7hPa SE 0.5mph /  0.8km/h 1.2mph /  1.9km/h 72% 0in /  0.0mm
23:29 62.4 °F /  16.9 °C 53.2 °F /  11.8 °C 30.1in /  1020.7hPa Calm   2.4mph /  3.9km/h 72% 0in /  0.0mm
23:34 62.4 °F /  16.9 °C 53.4 °F /  11.9 °C 30.1in /  1020.7hPa Calm   5.8mph /  9.3km/h 72.2% 0in /  0.0mm
23:39 62.4 °F /  16.9 °C 53.2 °F /  11.8 °C 30.1in /  1020.7hPa Calm   6mph /  9.7km/h 72% 0in /  0.0mm
23:44 62.4 °F /  16.9 °C 53.2 °F /  11.8 °C 30.1in /  1020.5hPa SO 2.2mph /  3.6km/h 6mph /  9.7km/h 71.8% 0in /  0.0mm
23:49 62.4 °F /  16.9 °C 52.9 °F /  11.6 °C 30.1in /  1020.5hPa SO 3.1mph /  5km/h 6.2mph /  10km/h 71% 0in /  0.0mm
23:54 62.4 °F /  16.9 °C 52.7 °F /  11.5 °C 30.1in /  1020.5hPa SO 3.8mph /  6.1km/h 6.2mph /  10km/h 70.3% 0in /  0.0mm
23:59 62.2 °F /  16.8 °C 52.5 °F /  11.4 °C 30.1in /  1020.4hPa SO 4mph /  6.5km/h 6.9mph /  11.1km/h 70.1% 0in /  0.0mm
Murcia-Puente Tocinos, España
Compliments of Weather Underground - 2.75 mb

La estación de MeteoMurcia.com, publica sus datos en los siguientes proyectos:

Weather Underground PWS IMURCIAP2 Meteoclimatic www.awekas.at

W3Counter
Web Analytics